Time;durP1;ratioP1;P1;durP2;ratioP2;P2;SDS_P1;SDS_P2;PMS_P1;PMS_P2;Temp;Humidity;BMP_temperature;BMP_pressure;BME280_temperature;BME280_humidity;BME280_pressure;Samples;Min_cycle;Max_cycle;Signal;HPM_P1;HPM_P2
2021/03/02 00:00:19;;;;;;;16.47;2.87;;;;;;;15.52;59.34;100728.78;5002246;28;20050;-66
2021/03/02 00:02:45;;;;;;;6.73;1.90;;;;;;;15.55;59.20;100716.88;4998942;28;20038;-66
2021/03/02 00:05:13;;;;;;;12.37;2.40;;;;;;;15.55;59.30;100716.03;4998500;28;20133;-65
2021/03/02 00:07:41;;;;;;;11.07;3.00;;;;;;;15.52;59.35;100719.47;5002805;28;20070;-67
2021/03/02 00:10:09;;;;;;;10.77;2.30;;;;;;;15.53;59.40;100721.16;4995149;28;20392;-67
2021/03/02 00:12:38;;;;;;;14.13;2.60;;;;;;;15.57;59.28;100728.66;4997231;28;20077;-67
2021/03/02 00:15:07;;;;;;;14.40;2.07;;;;;;;15.49;59.70;100735.03;4992803;28;20402;-66
2021/03/02 00:17:37;;;;;;;14.32;3.08;;;;;;;15.39;59.85;100727.59;5002834;28;20523;-66
2021/03/02 00:20:08;;;;;;;10.77;2.63;;;;;;;15.18;60.22;100706.59;4992722;28;20050;-69
2021/03/02 00:23:07;;;;;;;13.30;3.33;;;;;;;15.37;60.18;100735.50;4995210;28;20131;-63
2021/03/02 00:25:41;;;;;;;13.17;3.60;;;;;;;15.23;60.28;100703.69;4995402;28;20046;-64
2021/03/02 00:28:09;;;;;;;17.03;3.10;;;;;;;15.41;60.19;100730.91;4999230;28;20133;-65
2021/03/02 00:30:37;;;;;;;14.60;3.10;;;;;;;15.35;60.31;100720.91;5000255;28;20057;-65
2021/03/02 00:33:08;;;;;;;14.13;3.43;;;;;;;15.36;60.18;100711.31;4999144;28;20055;-64
2021/03/02 00:35:37;;;;;;;27.80;3.60;;;;;;;15.25;60.62;100715.47;5010845;28;20050;-67
2021/03/02 00:38:03;;;;;;;18.03;4.10;;;;;;;15.44;60.67;100743.53;5000997;28;20046;-70
2021/03/02 00:40:30;;;;;;;15.10;3.80;;;;;;;15.05;61.11;100690.50;5000119;28;20052;-69
2021/03/02 00:42:57;;;;;;;11.77;3.73;;;;;;;15.36;61.16;100750.72;4999936;28;20475;-70
2021/03/02 00:45:23;;;;;;;21.77;4.33;;;;;;;15.22;61.42;100735.78;4993409;28;20046;-71
2021/03/02 00:47:51;;;;;;;15.70;3.33;;;;;;;15.22;61.66;100727.34;4995965;28;20157;-70
2021/03/02 00:50:18;;;;;;;14.47;4.17;;;;;;;15.22;61.71;100735.78;4995090;28;20077;-69
2021/03/02 00:52:45;;;;;;;17.10;5.10;;;;;;;15.12;61.93;100724.69;4997237;28;20412;-68
2021/03/02 00:55:11;;;;;;;22.17;4.87;;;;;;;15.24;62.15;100750.34;4996291;28;20522;-70
2021/03/02 00:57:38;;;;;;;16.83;3.80;;;;;;;15.23;62.07;100745.03;4996982;28;20047;-70
2021/03/02 01:00:07;;;;;;;16.33;4.83;;;;;;;15.25;62.21;100754.84;4992028;28;20050;-69
2021/03/02 01:02:33;;;;;;;13.93;4.20;;;;;;;15.26;62.07;100747.25;5000822;28;20479;-70
2021/03/02 01:04:59;;;;;;;12.37;4.77;;;;;;;15.35;62.04;100763.13;4999212;28;20663;-71
2021/03/02 01:07:26;;;;;;;13.27;4.10;;;;;;;15.23;62.67;100754.31;4994480;28;20047;-68
2021/03/02 01:09:52;;;;;;;7.00;3.50;;;;;;;15.16;62.75;100753.88;4996942;28;20054;-70
2021/03/02 01:12:25;;;;;;;9.37;4.37;;;;;;;15.14;62.73;100757.00;4997331;28;20050;-69
2021/03/02 01:14:53;;;;;;;11.27;3.07;;;;;;;15.05;63.23;100743.94;4993019;28;20103;-66
2021/03/02 01:17:19;;;;;;;20.27;5.83;;;;;;;15.10;63.10;100749.47;4995763;28;20057;-65
2021/03/02 01:19:46;;;;;;;23.90;5.90;;;;;;;15.16;62.91;100751.06;4997770;28;20057;-67
2021/03/02 01:22:12;;;;;;;22.37;5.70;;;;;;;15.20;62.71;100748.47;4999653;28;20100;-72
2021/03/02 01:24:39;;;;;;;11.57;4.60;;;;;;;15.07;62.89;100728.41;5000808;28;20060;-69
2021/03/02 01:27:06;;;;;;;10.70;3.83;;;;;;;15.14;63.00;100739.25;4998294;28;20050;-68
2021/03/02 01:29:32;;;;;;;16.47;6.10;;;;;;;15.13;63.11;100743.22;4996789;28;20052;-66
2021/03/02 01:31:58;;;;;;;12.07;4.07;;;;;;;15.10;63.36;100755.09;4997424;28;20089;-67
2021/03/02 01:34:25;;;;;;;10.63;4.33;;;;;;;15.09;63.28;100753.44;4996615;28;20108;-70
2021/03/02 01:36:51;;;;;;;15.70;4.93;;;;;;;15.19;62.95;100756.06;4998800;28;20050;-67
2021/03/02 01:39:18;;;;;;;12.30;4.17;;;;;;;15.26;62.72;100759.34;4999771;28;20483;-67
2021/03/02 01:41:55;;;;;;;16.57;4.73;;;;;;;15.15;62.96;100746.59;4999480;28;20041;-65
2021/03/02 01:44:22;;;;;;;19.30;6.60;;;;;;;15.27;62.84;100766.63;4992509;28;20050;-68
2021/03/02 01:46:50;;;;;;;15.50;4.77;;;;;;;15.31;62.94;100776.13;5013268;28;20430;-69
2021/03/02 01:49:19;;;;;;;13.77;4.00;;;;;;;15.34;62.80;100766.22;4997853;28;20046;-68
2021/03/02 01:51:47;;;;;;;16.80;4.50;;;;;;;15.29;62.92;100761.53;4994381;28;20050;-65
2021/03/02 01:54:15;;;;;;;24.73;4.97;;;;;;;15.29;62.75;100764.34;4998777;28;20418;-67
2021/03/02 01:56:43;;;;;;;15.97;4.83;;;;;;;15.33;62.72;100756.97;4995784;28;20108;-68
2021/03/02 01:59:11;;;;;;;19.53;4.63;;;;;;;15.28;62.87;100754.25;4995128;28;20471;-67
2021/03/02 02:01:38;;;;;;;20.37;4.40;;;;;;;15.33;62.91;100768.22;4993854;28;20406;-69
2021/03/02 02:04:12;;;;;;;28.20;5.20;;;;;;;15.30;62.92;100776.44;4998467;28;20050;-69
2021/03/02 02:06:48;;;;;;;16.70;4.47;;;;;;;15.30;62.78;100766.00;4999759;28;20046;-70
2021/03/02 02:09:24;;;;;;;19.10;5.90;;;;;;;15.37;62.55;100766.44;4993753;28;20848;-70
2021/03/02 02:12:12;;;;;;;10.60;4.23;;;;;;;15.21;63.16;100765.03;4995323;28;20042;-73
2021/03/02 02:14:54;;;;;;;17.30;4.13;;;;;;;15.18;63.03;100765.66;4994644;28;20065;-65
2021/03/02 02:17:33;;;;;;;11.10;4.80;;;;;;;15.08;63.21;100763.84;4999375;28;20445;-64
2021/03/02 02:20:02;;;;;;;15.18;3.72;;;;;;;15.11;63.08;100754.81;5007148;28;20057;-64
2021/03/02 02:22:59;;;;;;;16.10;3.67;;;;;;;15.08;63.25;100763.03;5002698;28;20042;-61
2021/03/02 02:25:50;;;;;;;9.63;3.30;;;;;;;15.05;63.26;100763.63;5004641;28;20139;-61
2021/03/02 02:28:19;;;;;;;14.10;3.27;;;;;;;14.92;63.41;100752.00;5017831;28;20041;-66
2021/03/02 02:30:51;;;;;;;17.80;4.00;;;;;;;14.92;63.34;100752.00;4997418;28;20065;-66
2021/03/02 02:33:18;;;;;;;18.47;4.27;;;;;;;15.06;63.27;100776.53;4999041;28;20411;-66
2021/03/02 02:35:49;;;;;;;21.07;4.57;;;;;;;14.99;63.46;100764.84;4999496;28;20407;-67
2021/03/02 02:38:17;;;;;;;9.57;3.03;;;;;;;14.86;63.49;100767.25;5004889;28;20046;-65
2021/03/02 02:40:44;;;;;;;13.13;3.70;;;;;;;14.88;63.82;100769.78;4996686;28;20042;-65
2021/03/02 02:43:12;;;;;;;19.33;4.00;;;;;;;14.86;63.82;100775.69;5003809;28;20041;-65
2021/03/02 02:45:40;;;;;;;11.97;3.90;;;;;;;14.77;63.75;100763.50;4997731;28;20048;-66
2021/03/02 02:48:08;;;;;;;8.57;3.10;;;;;;;14.71;64.24;100767.50;5002022;28;20054;-66
2021/03/02 02:50:35;;;;;;;11.93;3.03;;;;;;;14.68;64.30;100771.75;5001505;28;20184;-68
2021/03/02 02:53:03;;;;;;;14.37;3.00;;;;;;;14.59;64.22;100750.25;4997379;28;20077;-68
2021/03/02 02:55:38;;;;;;;15.17;4.07;;;;;;;14.69;63.98;100767.78;5003136;28;20086;-70
2021/03/02 02:58:07;;;;;;;17.83;3.90;;;;;;;14.68;64.33;100763.31;4997681;28;20074;-66
2021/03/02 03:00:34;;;;;;;6.57;2.23;;;;;;;14.64;64.16;100758.63;4994357;28;20061;-68
2021/03/02 03:03:04;;;;;;;15.63;3.57;;;;;;;14.63;64.56;100773.78;5001111;28;20046;-67
2021/03/02 03:05:33;;;;;;;13.90;4.60;;;;;;;14.60;64.64;100768.81;4998697;28;20056;-68
2021/03/02 03:08:02;;;;;;;16.50;3.97;;;;;;;14.60;64.66;100772.44;4997977;28;20212;-69
2021/03/02 03:10:30;;;;;;;11.63;4.17;;;;;;;14.50;64.72;100764.16;4997237;28;20487;-68
2021/03/02 03:13:03;;;;;;;13.10;3.13;;;;;;;14.63;64.63;100780.28;4998140;28;20129;-67
2021/03/02 03:15:31;;;;;;;21.57;3.57;;;;;;;14.67;64.55;100786.13;4996831;28;20167;-68
2021/03/02 03:17:59;;;;;;;12.07;3.77;;;;;;;14.65;64.47;100782.75;5000098;28;20096;-68
2021/03/02 03:20:26;;;;;;;21.20;4.47;;;;;;;14.66;64.74;100774.03;5000029;28;20053;-68
2021/03/02 03:22:55;;;;;;;10.60;3.70;;;;;;;14.69;64.41;100779.03;4999566;28;20042;-70
2021/03/02 03:25:22;;;;;;;14.27;4.60;;;;;;;14.67;64.53;100783.31;4998398;28;20498;-69
2021/03/02 03:27:53;;;;;;;14.00;3.17;;;;;;;14.61;64.64;100773.28;5000016;28;20046;-70
2021/03/02 03:30:21;;;;;;;9.97;2.73;;;;;;;14.56;64.89;100774.16;5001230;28;20137;-69
2021/03/02 03:33:01;;;;;;;13.33;4.57;;;;;;;14.56;64.76;100774.16;4997812;28;20052;-70
2021/03/02 03:35:29;;;;;;;17.67;3.63;;;;;;;14.60;64.80;100780.88;5002704;28;20042;-69
2021/03/02 03:37:58;;;;;;;16.80;3.83;;;;;;;14.58;64.76;100780.31;4997335;28;20479;-69
2021/03/02 03:40:34;;;;;;;12.43;4.17;;;;;;;14.46;65.20;100783.56;5002510;28;20497;-69
2021/03/02 03:43:05;;;;;;;23.43;4.07;;;;;;;14.46;64.63;100768.66;4995139;28;20046;-69
2021/03/02 03:45:32;;;;;;;13.43;4.23;;;;;;;14.51;64.99;100798.69;4999734;28;20042;-65
2021/03/02 03:48:01;;;;;;;8.67;3.67;;;;;;;14.52;64.91;100789.13;4998494;28;20053;-65
2021/03/02 03:50:27;;;;;;;18.60;4.20;;;;;;;14.52;65.02;100794.75;4998014;28;20046;-65
2021/03/02 03:53:00;;;;;;;7.33;3.83;;;;;;;14.37;64.87;100776.91;4995917;28;20046;-65
2021/03/02 03:55:44;;;;;;;13.43;4.00;;;;;;;14.42;65.17;100790.88;5000346;28;20065;-64
2021/03/02 03:58:18;;;;;;;19.60;4.60;;;;;;;14.49;65.05;100795.31;4993990;28;20046;-64
2021/03/02 04:00:49;;;;;;;14.83;3.93;;;;;;;14.49;64.93;100803.75;5003801;28;20042;-64
2021/03/02 04:03:16;;;;;;;16.03;3.80;;;;;;;14.51;65.00;100805.16;5000256;28;20062;-63
2021/03/02 04:05:42;;;;;;;15.27;3.30;;;;;;;14.46;65.01;100803.22;4997313;28;20042;-64
2021/03/02 04:08:09;;;;;;;15.13;3.83;;;;;;;14.52;64.96;100812.44;4998769;28;20041;-65
2021/03/02 04:10:36;;;;;;;12.07;3.43;;;;;;;14.51;64.98;100810.78;4994858;28;20145;-66
2021/03/02 04:13:12;;;;;;;20.00;3.90;;;;;;;14.50;65.03;100808.25;4995829;28;20053;-69
2021/03/02 04:15:41;;;;;;;16.77;3.50;;;;;;;14.31;65.28;100788.53;4994278;28;20046;-66
2021/03/02 04:18:16;;;;;;;11.82;4.10;;;;;;;14.34;64.92;100783.13;5000069;28;20499;-67
2021/03/02 04:20:48;;;;;;;11.27;3.37;;;;;;;14.43;65.27;100809.44;4998348;28;20042;-68
2021/03/02 04:23:14;;;;;;;13.70;3.53;;;;;;;14.48;65.04;100810.50;4997954;28;20487;-67
2021/03/02 04:25:44;;;;;;;17.65;4.15;;;;;;;14.46;64.76;100794.78;4995763;28;20049;-68
2021/03/02 04:28:10;;;;;;;20.33;3.50;;;;;;;14.59;64.63;100823.31;4996011;28;20055;-68
2021/03/02 04:30:37;;;;;;;16.43;4.07;;;;;;;14.53;64.76;100818.88;5002357;28;20049;-68
2021/03/02 04:33:05;;;;;;;14.20;3.97;;;;;;;14.40;64.93;100810.03;5001218;28;20050;-62
2021/03/02 04:35:34;;;;;;;7.80;3.33;;;;;;;14.53;64.81;100830.13;4996584;28;20458;-65
2021/03/02 04:38:00;;;;;;;11.30;3.97;;;;;;;14.57;64.67;100828.41;5000322;28;20298;-67
2021/03/02 04:40:30;;;;;;;13.40;3.40;;;;;;;14.60;64.37;100825.00;4997130;28;20042;-66
2021/03/02 04:42:56;;;;;;;10.03;2.97;;;;;;;14.62;64.28;100822.72;4992927;28;20058;-66
2021/03/02 04:45:22;;;;;;;12.77;3.83;;;;;;;14.50;64.20;100805.44;4995738;28;20475;-67
2021/03/02 04:47:49;;;;;;;17.73;4.10;;;;;;;14.65;64.18;100833.34;5000862;28;20052;-68
2021/03/02 04:50:16;;;;;;;10.23;2.90;;;;;;;14.72;63.97;100833.81;4995789;28;20120;-65
2021/03/02 04:52:42;;;;;;;8.93;2.83;;;;;;;14.64;64.13;100840.97;4999716;28;20119;-65
2021/03/02 04:55:10;;;;;;;6.03;3.00;;;;;;;14.62;64.05;100836.78;4995823;28;20058;-65
2021/03/02 04:57:36;;;;;;;8.00;2.50;;;;;;;14.60;64.22;100844.69;4993283;28;20047;-62
2021/03/02 05:00:08;;;;;;;11.13;2.93;;;;;;;14.66;63.96;100835.03;4996307;28;20052;-65
2021/03/02 05:02:35;;;;;;;6.17;2.07;;;;;;;14.65;63.96;100845.44;4999066;28;20049;-65
2021/03/02 05:05:02;;;;;;;12.00;2.63;;;;;;;14.57;63.92;100842.47;4999573;28;20050;-65
2021/03/02 05:07:34;;;;;;;9.37;2.83;;;;;;;14.66;63.84;100851.88;4999353;28;20056;-62
2021/03/02 05:10:01;;;;;;;9.77;3.47;;;;;;;14.58;64.02;100850.59;4994776;28;20495;-66
2021/03/02 05:12:28;;;;;;;9.87;3.03;;;;;;;14.51;63.99;100844.50;4994978;28;20046;-67
2021/03/02 05:14:54;;;;;;;8.30;3.03;;;;;;;14.52;64.40;100853.75;4993695;28;20406;-67
2021/03/02 05:17:20;;;;;;;7.83;2.90;;;;;;;14.37;64.29;100835.91;4998599;28;20038;-68
2021/03/02 05:19:47;;;;;;;10.60;3.37;;;;;;;14.51;64.44;100861.34;4996659;28;20049;-66
2021/03/02 05:22:13;;;;;;;6.47;2.47;;;;;;;14.62;64.05;100851.66;5001006;28;20046;-67
2021/03/02 05:24:42;;;;;;;10.27;2.57;;;;;;;14.66;63.95;100857.50;4994638;28;20047;-67
2021/03/02 05:27:11;;;;;;;10.70;2.63;;;;;;;14.49;64.07;100835.50;4992324;28;20134;-67
2021/03/02 05:29:41;;;;;;;10.67;2.60;;;;;;;14.58;64.14;100861.81;4998165;28;20533;-68
2021/03/02 05:32:13;;;;;;;11.97;2.87;;;;;;;14.59;64.04;100859.84;4999823;28;20046;-65
2021/03/02 05:34:41;;;;;;;7.97;3.50;;;;;;;14.57;64.18;100870.56;4995945;28;20427;-67
2021/03/02 05:37:10;;;;;;;9.63;2.50;;;;;;;14.19;64.20;100803.00;4995331;28;20475;-66
2021/03/02 05:39:36;;;;;;;6.67;3.03;;;;;;;14.53;64.26;100869.47;5010646;28;20050;-66
2021/03/02 05:42:07;;;;;;;9.97;3.50;;;;;;;14.51;64.21;100857.72;4997461;28;20073;-66
2021/03/02 05:44:38;;;;;;;7.45;2.78;;;;;;;14.45;64.45;100863.34;4992639;28;20057;-66
2021/03/02 05:47:05;;;;;;;9.70;2.58;;;;;;;14.41;64.27;100867.91;4995871;28;20105;-70
2021/03/02 05:49:31;;;;;;;15.63;4.10;;;;;;;14.40;64.61;100873.84;4996867;28;20046;-69
2021/03/02 05:51:58;;;;;;;8.67;3.37;;;;;;;14.37;64.72;100877.22;4997607;28;20064;-69
2021/03/02 05:54:25;;;;;;;10.93;5.80;;;;;;;14.37;64.59;100882.84;5004265;28;20056;-68
2021/03/02 05:56:52;;;;;;;9.00;2.43;;;;;;;14.34;64.64;100886.25;4999632;28;20125;-66
2021/03/02 05:59:18;;;;;;;13.80;3.23;;;;;;;14.32;64.91;100894.13;4999392;28;20037;-66
2021/03/02 06:01:48;;;;;;;9.30;3.53;;;;;;;14.33;64.60;100882.63;5000079;28;20129;-64
2021/03/02 06:04:18;;;;;;;13.73;3.87;;;;;;;14.33;64.58;100882.63;4998291;28;20407;-65
2021/03/02 06:06:45;;;;;;;14.23;3.33;;;;;;;14.38;64.44;100871.31;5004752;28;20125;-66
2021/03/02 06:09:11;;;;;;;11.37;3.90;;;;;;;14.37;64.54;100880.88;5005053;28;20050;-64
2021/03/02 06:11:37;;;;;;;14.83;4.57;;;;;;;14.30;64.58;100860.72;5001113;28;20072;-64
2021/03/02 06:14:24;;;;;;;15.37;3.63;;;;;;;14.37;64.55;100886.50;5001502;28;20218;-63
2021/03/02 06:16:55;;;;;;;8.60;3.50;;;;;;;14.39;64.53;100884.25;5000160;28;20533;-64
2021/03/02 06:19:41;;;;;;;11.10;2.70;;;;;;;14.38;64.49;100890.13;5002054;28;20042;-65
2021/03/02 06:22:09;;;;;;;9.20;3.30;;;;;;;14.40;64.35;100888.72;5007019;28;20054;-64
2021/03/02 06:24:39;;;;;;;19.13;3.60;;;;;;;14.44;64.33;100901.03;4996449;28;20065;-63
2021/03/02 06:27:08;;;;;;;15.57;4.15;;;;;;;14.40;64.49;100899.94;4999072;28;20075;-63
2021/03/02 06:29:35;;;;;;;9.93;3.03;;;;;;;14.40;64.25;100894.34;4996636;28;20045;-63
2021/03/02 06:32:01;;;;;;;13.33;3.17;;;;;;;14.47;64.30;100905.22;4999192;28;20477;-62
2021/03/02 06:34:28;;;;;;;9.77;3.10;;;;;;;14.41;64.49;100898.81;4995343;28;20066;-60
2021/03/02 06:37:03;;;;;;;9.40;2.93;;;;;;;14.44;64.39;100895.41;5002541;28;20043;-67
2021/03/02 06:39:42;;;;;;;9.97;4.50;;;;;;;14.50;64.10;100904.66;5002025;28;20047;-58
2021/03/02 06:42:15;;;;;;;6.83;2.77;;;;;;;14.56;64.03;100903.44;5003730;28;20050;-59
2021/03/02 06:44:47;;;;;;;13.60;2.60;;;;;;;14.56;64.07;100911.03;5000576;28;20046;-59
2021/03/02 06:47:42;;;;;;;13.97;3.23;;;;;;;14.54;63.81;100896.47;5001363;28;20061;-69
2021/03/02 06:50:13;;;;;;;10.87;2.93;;;;;;;14.57;63.90;100905.13;5003985;28;20069;-60
2021/03/02 06:52:41;;;;;;;9.43;2.95;;;;;;;14.59;64.15;100907.63;5001586;28;20081;-63
2021/03/02 06:55:27;;;;;;;11.60;3.63;;;;;;;14.60;63.83;100903.72;4998675;28;20142;-63
2021/03/02 06:58:23;;;;;;;9.40;2.63;;;;;;;14.68;63.69;100914.28;4996962;28;20135;-61
2021/03/02 07:00:55;;;;;;;12.93;3.40;;;;;;;14.70;63.68;100909.22;4998682;28;20050;-61
2021/03/02 07:03:27;;;;;;;7.97;3.27;;;;;;;14.67;63.71;100921.03;5005483;28;20068;-59
2021/03/02 07:05:56;;;;;;;8.43;3.13;;;;;;;14.72;63.54;100918.16;4993639;28;20057;-58
2021/03/02 07:08:24;;;;;;;10.57;3.30;;;;;;;14.56;63.93;100920.31;4997086;28;20169;-60
2021/03/02 07:10:53;;;;;;;18.40;4.37;;;;;;;14.56;64.20;100933.53;4999855;28;20141;-60
2021/03/02 07:13:21;;;;;;;10.67;4.30;;;;;;;14.50;64.42;100931.91;5002392;28;20523;-60
2021/03/02 07:15:51;;;;;;;17.63;3.60;;;;;;;14.49;64.46;100936.66;4997409;28;20047;-59
2021/03/02 07:18:20;;;;;;;12.93;3.70;;;;;;;14.41;64.87;100931.69;4996941;28;20047;-60
2021/03/02 07:20:50;;;;;;;14.23;4.13;;;;;;;14.39;64.89;100942.38;4996662;28;20042;-60
2021/03/02 07:23:19;;;;;;;7.85;2.85;;;;;;;14.38;64.91;100935.94;4998475;28;20577;-59
2021/03/02 07:25:47;;;;;;;13.23;3.37;;;;;;;14.39;65.07;100948.00;4996601;28;20380;-59
2021/03/02 07:28:15;;;;;;;14.40;3.73;;;;;;;14.41;64.75;100951.38;5000648;28;20058;-59
2021/03/02 07:30:45;;;;;;;11.63;3.97;;;;;;;14.43;64.78;100947.13;4998343;28;20057;-58
2021/03/02 07:33:19;;;;;;;10.73;3.73;;;;;;;14.45;64.78;100949.63;5002186;28;20406;-59
2021/03/02 07:35:47;;;;;;;13.47;4.00;;;;;;;14.44;64.98;100959.19;5002712;28;20047;-60
2021/03/02 07:38:14;;;;;;;9.07;3.10;;;;;;;14.45;64.94;100967.31;4995959;28;20549;-59
2021/03/02 07:40:52;;;;;;;19.30;3.70;;;;;;;14.44;65.18;100974.09;4999464;28;20721;-60
2021/03/02 07:43:37;;;;;;;15.10;3.97;;;;;;;14.40;65.24;100973.00;4994417;28;20050;-60
2021/03/02 07:46:29;;;;;;;11.73;4.47;;;;;;;14.35;65.60;100975.84;4992653;28;20046;-60
2021/03/02 07:48:55;;;;;;;11.47;2.83;;;;;;;14.33;65.86;100978.13;5000893;28;20046;-60
2021/03/02 07:51:23;;;;;;;14.70;3.97;;;;;;;14.08;66.19;100961.50;5001967;28;20053;-59
2021/03/02 07:53:52;;;;;;;2.70;2.30;;;;;;;14.11;66.69;100980.56;5000161;28;20501;-58
2021/03/02 07:56:22;;;;;;;10.97;3.50;;;;;;;14.28;66.47;100980.16;4995272;28;20050;-60
2021/03/02 07:59:11;;;;;;;7.88;4.53;;;;;;;14.52;66.10;100989.50;4997830;28;20497;-58
2021/03/02 08:01:37;;;;;;;9.20;2.07;;;;;;;14.45;66.09;101001.03;4995292;28;20409;-59
2021/03/02 08:04:14;;;;;;;13.37;4.13;;;;;;;14.42;66.12;101004.44;5000075;28;20792;-60
2021/03/02 08:06:50;;;;;;;6.23;2.00;;;;;;;14.45;65.96;101001.03;5000520;28;20050;-59
2021/03/02 08:09:26;;;;;;;5.23;1.90;;;;;;;14.35;66.28;101003.94;5003652;28;20433;-59
2021/03/02 08:12:35;;;;;;;10.70;3.73;;;;;;;14.46;65.77;101011.16;4993055;28;20137;-58
2021/03/02 08:15:22;;;;;;;10.47;3.80;;;;;;;14.36;65.71;101000.03;4970596;28;20495;-59
2021/03/02 08:18:30;;;;;;;9.67;3.83;;;;;;;14.46;65.89;101028.03;4968654;28;20567;-58
2021/03/02 08:21:28;;;;;;;11.33;3.40;;;;;;;14.40;65.71;101031.19;4993968;28;20052;-59
2021/03/02 08:23:59;;;;;;;7.67;3.00;;;;;;;14.34;66.13;101036.00;5003115;28;20049;-59
2021/03/02 08:26:28;;;;;;;10.83;4.40;;;;;;;14.40;65.97;101040.44;4994504;28;20463;-59
2021/03/02 08:29:17;;;;;;;10.43;4.03;;;;;;;14.19;66.85;101031.34;4993800;28;20078;-59
2021/03/02 08:31:47;;;;;;;13.93;4.00;;;;;;;14.21;66.92;101047.91;4996061;28;20057;-59
2021/03/02 08:34:22;;;;;;;7.90;4.27;;;;;;;14.21;66.48;101047.91;5000989;28;20076;-59
2021/03/02 08:36:51;;;;;;;9.10;2.77;;;;;;;14.13;66.88;101046.56;4992139;28;20042;-59
2021/03/02 08:39:20;;;;;;;14.30;3.17;;;;;;;14.09;67.31;101051.09;4994471;28;20049;-59
2021/03/02 08:41:49;;;;;;;6.10;4.00;;;;;;;14.07;67.59;101058.13;5000113;28;20163;-59
2021/03/02 08:44:18;;;;;;;16.17;4.30;;;;;;;14.09;67.09;101036.22;5003499;28;20037;-59
2021/03/02 08:46:51;;;;;;;8.50;4.30;;;;;;;14.14;67.42;101041.78;5000573;28;20052;-59
2021/03/02 08:49:19;;;;;;;13.27;3.90;;;;;;;14.18;67.87;101063.34;5000888;28;20469;-59
2021/03/02 08:51:46;;;;;;;16.00;4.67;;;;;;;14.18;68.00;101065.34;4994698;28;20566;-59
2021/03/02 08:54:12;;;;;;;25.77;5.30;;;;;;;14.26;67.94;101078.78;4999317;28;20393;-59
2021/03/02 08:56:39;;;;;;;5.57;2.17;;;;;;;14.46;67.39;101067.38;4998493;28;20558;-59
2021/03/02 08:59:09;;;;;;;8.07;3.30;;;;;;;14.45;67.10;101053.59;5002960;28;20471;-59
2021/03/02 09:01:37;;;;;;;10.82;4.72;;;;;;;14.64;66.73;101085.50;4996785;28;20470;-59
2021/03/02 09:04:20;;;;;;;10.37;3.70;;;;;;;14.59;66.66;101082.72;4998718;28;20050;-59
2021/03/02 09:06:48;;;;;;;15.27;4.43;;;;;;;14.56;66.71;101082.47;5000287;28;20419;-60
2021/03/02 09:09:21;;;;;;;15.57;3.83;;;;;;;14.59;66.66;101085.53;4995578;28;20129;-59
2021/03/02 09:11:57;;;;;;;8.67;3.90;;;;;;;14.70;66.28;101091.94;4993380;28;20082;-58
2021/03/02 09:14:34;;;;;;;3.43;2.07;;;;;;;14.74;66.11;101089.38;4995039;28;20128;-59
2021/03/02 09:17:06;;;;;;;5.93;3.08;;;;;;;14.76;65.92;101098.31;4999322;28;20061;-59
2021/03/02 09:19:42;;;;;;;15.73;3.87;;;;;;;14.72;65.78;101092.47;4995518;28;20119;-59
2021/03/02 09:22:13;;;;;;;8.20;3.60;;;;;;;14.95;65.55;101101.25;4993517;28;20234;-59
2021/03/02 09:24:47;;;;;;;13.93;4.17;;;;;;;14.99;65.50;101107.94;4998430;28;20096;-59
2021/03/02 09:27:16;;;;;;;15.17;3.60;;;;;;;15.04;65.26;101097.50;4994995;28;20419;-58
2021/03/02 09:29:50;;;;;;;6.80;2.40;;;;;;;14.85;65.09;101074.06;5003318;28;20472;-59
2021/03/02 09:32:29;;;;;;;11.67;3.00;;;;;;;15.05;64.77;101103.97;5008285;28;20048;-58
2021/03/02 09:34:58;;;;;;;10.23;3.37;;;;;;;15.00;64.40;101099.22;5001774;28;20053;-60
2021/03/02 09:37:25;;;;;;;8.40;2.40;;;;;;;15.16;64.28;101116.78;5004093;28;20133;-59
2021/03/02 09:39:55;;;;;;;39.97;4.67;;;;;;;15.25;64.11;101109.38;5001484;28;20105;-59
2021/03/02 09:42:25;;;;;;;9.03;2.77;;;;;;;15.34;63.63;101109.53;5002707;28;20104;-60
2021/03/02 09:44:53;;;;;;;;;;;;;;;15.68;63.17;101120.69;5002512;28;20049;-59
2021/03/02 09:47:34;;;;;;;9.30;2.87;;;;;;;15.74;62.48;101136.38;5005511;28;19932;-59
2021/03/02 09:50:09;;;;;;;6.60;2.73;;;;;;;15.65;62.16;101129.69;5001988;28;20064;-59
2021/03/02 09:52:43;;;;;;;10.10;2.43;;;;;;;15.78;62.05;101126.19;5003016;28;20061;-60
2021/03/02 09:55:14;;;;;;;7.37;2.57;;;;;;;15.79;61.73;101138.28;4995277;28;20049;-60
2021/03/02 10:00:37;;;;;;;11.73;3.30;;;;;;;15.68;61.62;101120.69;5000127;28;20054;-59
2021/03/02 10:03:11;;;;;;;5.73;1.63;;;;;;;15.70;61.40;101143.75;4998194;28;20471;-59
2021/03/02 10:05:45;;;;;;;9.23;2.03;;;;;;;15.73;61.20;101143.16;5001006;28;20165;-60
2021/03/02 10:08:27;;;;;;;10.63;2.60;;;;;;;15.88;61.22;101151.41;4998139;28;20050;-60
2021/03/02 10:11:12;;;;;;;16.87;2.87;;;;;;;15.95;61.11;101148.22;4996469;28;20050;-60
2021/03/02 10:13:45;;;;;;;8.30;2.57;;;;;;;16.09;59.96;101148.31;4998327;28;20073;-59
2021/03/02 10:16:17;;;;;;;11.97;2.27;;;;;;;16.11;60.37;101152.50;5002655;28;20046;-60
2021/03/02 10:18:47;;;;;;;3.63;1.97;;;;;;;16.07;59.99;101133.72;4996711;28;20046;-58
2021/03/02 10:21:16;;;;;;;10.32;3.00;;;;;;;16.16;59.93;101160.03;5001429;28;21170;-58
2021/03/02 10:23:48;;;;;;;6.97;3.07;;;;;;;16.17;59.64;101156.09;4995477;28;20057;-58
2021/03/02 10:26:26;;;;;;;2.80;1.67;;;;;;;15.93;59.59;101149.66;4998063;28;20046;-60
2021/03/02 10:28:53;;;;;;;4.90;2.17;;;;;;;16.17;59.42;101160.88;4998923;28;20042;-58
2021/03/02 10:31:21;;;;;;;9.63;2.17;;;;;;;16.32;59.54;101166.31;5002637;28;20052;-59
2021/03/02 10:33:48;;;;;;;5.70;2.40;;;;;;;16.29;58.83;101167.75;5005292;28;20068;-59
2021/03/02 10:36:20;;;;;;;10.77;2.63;;;;;;;16.28;58.34;101168.06;5002216;28;20042;-60
2021/03/02 10:38:46;;;;;;;8.67;2.20;;;;;;;16.26;58.13;101165.53;5000144;28;20475;-59
2021/03/02 10:41:13;;;;;;;8.90;2.23;;;;;;;16.42;57.65;101173.78;5001840;28;20486;-60
2021/03/02 10:43:39;;;;;;;14.03;3.00;;;;;;;16.56;57.64;101195.25;4999599;28;20454;-59
2021/03/02 10:46:06;;;;;;;10.80;2.47;;;;;;;16.70;57.36;101174.75;4998969;28;20049;-59
2021/03/02 10:48:33;;;;;;;6.23;2.07;;;;;;;16.89;56.97;101178.41;4998826;28;22309;-59
2021/03/02 10:51:00;;;;;;;10.67;2.60;;;;;;;16.86;56.40;101158.44;4996632;28;20046;-59
2021/03/02 10:53:27;;;;;;;9.23;2.10;;;;;;;17.02;56.70;101185.22;4995217;28;20100;-59
2021/03/02 10:55:56;;;;;;;4.90;2.33;;;;;;;17.09;55.91;101191.31;4997028;28;20064;-59
2021/03/02 10:58:22;;;;;;;6.50;2.25;;;;;;;17.10;54.58;101195.81;4994966;28;20137;-60
2021/03/02 11:00:48;;;;;;;5.27;2.10;;;;;;;17.05;54.13;101204.38;4996335;28;20049;-58
2021/03/02 11:03:16;;;;;;;9.75;1.77;;;;;;;16.99;54.10;101197.13;4998019;28;20327;-60
2021/03/02 11:05:42;;;;;;;8.00;2.57;;;;;;;16.94;54.37;101203.69;4997397;28;20041;-59
2021/03/02 11:08:08;;;;;;;3.77;1.70;;;;;;;16.55;54.12;101148.47;4997369;28;20831;-59
2021/03/02 11:10:35;;;;;;;4.07;1.80;;;;;;;17.13;53.99;101212.16;5000635;28;20246;-58
2021/03/02 11:13:01;;;;;;;5.05;2.17;;;;;;;17.35;53.40;101216.28;5000797;28;20726;-60
2021/03/02 11:15:27;;;;;;;12.13;1.90;;;;;;;17.46;53.63;101203.63;4999043;28;20041;-59
2021/03/02 11:17:56;;;;;;;6.65;1.80;;;;;;;17.48;53.23;101212.63;5000330;28;20061;-58
2021/03/02 11:20:35;;;;;;;5.90;2.65;;;;;;;17.52;52.91;101203.22;4996266;28;20153;-60
2021/03/02 11:23:02;;;;;;;6.57;1.80;;;;;;;17.65;52.93;101215.69;4997599;28;20061;-59
2021/03/02 11:25:32;;;;;;;10.85;2.33;;;;;;;17.74;52.83;101216.66;4999215;28;20113;-59
2021/03/02 11:27:58;;;;;;;6.40;2.17;;;;;;;17.69;52.54;101216.75;5002046;28;20133;-60
2021/03/02 11:30:25;;;;;;;5.97;1.60;;;;;;;17.59;52.31;101183.03;5000709;28;20148;-59
2021/03/02 11:32:51;;;;;;;5.97;1.95;;;;;;;17.86;52.28;101218.16;4998635;28;20140;-60
2021/03/02 11:35:18;;;;;;;7.32;1.83;;;;;;;18.06;52.10;101220.56;4996678;28;20045;-60
2021/03/02 11:37:45;;;;;;;13.85;2.75;;;;;;;18.19;51.93;101221.69;4995559;28;20054;-58